sensor_id;sensor_type;location;lat;lon;timestamp;P1;durP1;ratioP1;P2;durP2;ratioP2
21727;SDS011;11026;50.560;17.852;2022-11-02T00:00:32;27.70;;;18.35;;
21727;SDS011;11026;50.560;17.852;2022-11-02T00:03:03;26.25;;;18.23;;
21727;SDS011;11026;50.560;17.852;2022-11-02T00:05:34;27.92;;;18.67;;
21727;SDS011;11026;50.560;17.852;2022-11-02T00:08:10;24.98;;;17.35;;
21727;SDS011;11026;50.560;17.852;2022-11-02T00:10:40;26.40;;;16.98;;
21727;SDS011;11026;50.560;17.852;2022-11-02T00:13:07;20.92;;;16.95;;
21727;SDS011;11026;50.560;17.852;2022-11-02T00:15:36;22.77;;;16.05;;
21727;SDS011;11026;50.560;17.852;2022-11-02T00:18:11;27.55;;;17.27;;
21727;SDS011;11026;50.560;17.852;2022-11-02T00:20:43;28.30;;;17.20;;
21727;SDS011;11026;50.560;17.852;2022-11-02T00:23:10;26.25;;;18.67;;
21727;SDS011;11026;50.560;17.852;2022-11-02T00:25:46;29.25;;;18.70;;
21727;SDS011;11026;50.560;17.852;2022-11-02T00:28:18;25.90;;;18.23;;
21727;SDS011;11026;50.560;17.852;2022-11-02T00:30:45;31.77;;;20.48;;
21727;SDS011;11026;50.560;17.852;2022-11-02T00:33:13;32.83;;;20.58;;
21727;SDS011;11026;50.560;17.852;2022-11-02T00:35:41;31.27;;;21.35;;
21727;SDS011;11026;50.560;17.852;2022-11-02T00:38:09;35.33;;;21.05;;
21727;SDS011;11026;50.560;17.852;2022-11-02T00:40:37;34.83;;;21.80;;
21727;SDS011;11026;50.560;17.852;2022-11-02T00:43:06;33.88;;;22.60;;
21727;SDS011;11026;50.560;17.852;2022-11-02T00:45:37;38.25;;;23.65;;
21727;SDS011;11026;50.560;17.852;2022-11-02T00:48:04;38.17;;;22.85;;
21727;SDS011;11026;50.560;17.852;2022-11-02T00:50:32;37.28;;;24.35;;
21727;SDS011;11026;50.560;17.852;2022-11-02T00:53:00;38.50;;;24.92;;
21727;SDS011;11026;50.560;17.852;2022-11-02T00:55:29;42.95;;;26.60;;
21727;SDS011;11026;50.560;17.852;2022-11-02T00:57:58;45.42;;;26.13;;
21727;SDS011;11026;50.560;17.852;2022-11-02T01:00:26;45.63;;;26.52;;
21727;SDS011;11026;50.560;17.852;2022-11-02T01:02:54;44.90;;;27.20;;
21727;SDS011;11026;50.560;17.852;2022-11-02T01:05:25;42.17;;;26.48;;
21727;SDS011;11026;50.560;17.852;2022-11-02T01:08:05;42.97;;;28.02;;
21727;SDS011;11026;50.560;17.852;2022-11-02T01:10:34;45.53;;;26.70;;
21727;SDS011;11026;50.560;17.852;2022-11-02T01:13:03;45.90;;;26.60;;
21727;SDS011;11026;50.560;17.852;2022-11-02T01:15:35;44.40;;;27.27;;
21727;SDS011;11026;50.560;17.852;2022-11-02T01:18:18;41.75;;;26.88;;
21727;SDS011;11026;50.560;17.852;2022-11-02T01:20:44;40.28;;;26.38;;
21727;SDS011;11026;50.560;17.852;2022-11-02T01:23:12;44.10;;;26.92;;
21727;SDS011;11026;50.560;17.852;2022-11-02T01:25:43;42.20;;;26.52;;
21727;SDS011;11026;50.560;17.852;2022-11-02T01:28:10;41.58;;;26.15;;
21727;SDS011;11026;50.560;17.852;2022-11-02T01:30:38;41.90;;;27.65;;
21727;SDS011;11026;50.560;17.852;2022-11-02T01:35:35;43.20;;;27.08;;
21727;SDS011;11026;50.560;17.852;2022-11-02T01:40:37;41.25;;;26.17;;
21727;SDS011;11026;50.560;17.852;2022-11-02T01:49:00;44.20;;;26.75;;
21727;SDS011;11026;50.560;17.852;2022-11-02T01:51:35;41.17;;;27.48;;
21727;SDS011;11026;50.560;17.852;2022-11-02T01:54:17;46.75;;;27.95;;
21727;SDS011;11026;50.560;17.852;2022-11-02T01:56:50;43.05;;;27.77;;
21727;SDS011;11026;50.560;17.852;2022-11-02T02:02:27;45.28;;;28.83;;
21727;SDS011;11026;50.560;17.852;2022-11-02T02:05:14;48.90;;;27.92;;
21727;SDS011;11026;50.560;17.852;2022-11-02T02:07:43;46.53;;;29.20;;
21727;SDS011;11026;50.560;17.852;2022-11-02T02:10:13;42.90;;;26.52;;
21727;SDS011;11026;50.560;17.852;2022-11-02T02:15:49;43.50;;;28.00;;
21727;SDS011;11026;50.560;17.852;2022-11-02T02:18:45;40.20;;;26.67;;
21727;SDS011;11026;50.560;17.852;2022-11-02T02:30:08;43.40;;;27.05;;
21727;SDS011;11026;50.560;17.852;2022-11-02T02:36:40;44.03;;;28.00;;
21727;SDS011;11026;50.560;17.852;2022-11-02T02:44:35;45.80;;;28.75;;
21727;SDS011;11026;50.560;17.852;2022-11-02T02:47:09;43.40;;;28.58;;
21727;SDS011;11026;50.560;17.852;2022-11-02T02:49:53;54.47;;;30.10;;
21727;SDS011;11026;50.560;17.852;2022-11-02T02:55:21;48.55;;;28.52;;
21727;SDS011;11026;50.560;17.852;2022-11-02T02:57:51;49.00;;;29.33;;
21727;SDS011;11026;50.560;17.852;2022-11-02T03:00:22;52.90;;;28.70;;
21727;SDS011;11026;50.560;17.852;2022-11-02T03:02:55;45.72;;;28.25;;
21727;SDS011;11026;50.560;17.852;2022-11-02T03:05:29;48.92;;;29.65;;
21727;SDS011;11026;50.560;17.852;2022-11-02T03:08:05;49.85;;;29.55;;
21727;SDS011;11026;50.560;17.852;2022-11-02T03:10:51;47.65;;;28.77;;
21727;SDS011;11026;50.560;17.852;2022-11-02T03:19:29;43.05;;;27.30;;
21727;SDS011;11026;50.560;17.852;2022-11-02T03:22:40;44.42;;;26.80;;
21727;SDS011;11026;50.560;17.852;2022-11-02T03:25:36;40.88;;;26.70;;
21727;SDS011;11026;50.560;17.852;2022-11-02T03:30:57;41.47;;;26.77;;
21727;SDS011;11026;50.560;17.852;2022-11-02T03:33:31;41.45;;;27.15;;
21727;SDS011;11026;50.560;17.852;2022-11-02T03:36:18;45.80;;;26.75;;
21727;SDS011;11026;50.560;17.852;2022-11-02T03:38:53;40.05;;;25.10;;
21727;SDS011;11026;50.560;17.852;2022-11-02T03:41:24;37.60;;;24.88;;
21727;SDS011;11026;50.560;17.852;2022-11-02T03:43:56;40.92;;;25.10;;
21727;SDS011;11026;50.560;17.852;2022-11-02T03:46:29;39.28;;;24.33;;
21727;SDS011;11026;50.560;17.852;2022-11-02T03:49:06;39.50;;;24.17;;
21727;SDS011;11026;50.560;17.852;2022-11-02T03:51:37;41.42;;;23.70;;
21727;SDS011;11026;50.560;17.852;2022-11-02T04:02:05;34.53;;;21.73;;
21727;SDS011;11026;50.560;17.852;2022-11-02T04:04:51;36.50;;;22.00;;
21727;SDS011;11026;50.560;17.852;2022-11-02T04:07:20;37.00;;;22.60;;
21727;SDS011;11026;50.560;17.852;2022-11-02T04:12:27;34.28;;;21.58;;
21727;SDS011;11026;50.560;17.852;2022-11-02T04:15:34;31.60;;;20.23;;
21727;SDS011;11026;50.560;17.852;2022-11-02T04:20:50;33.95;;;21.40;;
21727;SDS011;11026;50.560;17.852;2022-11-02T04:23:19;32.05;;;21.30;;
21727;SDS011;11026;50.560;17.852;2022-11-02T04:26:06;32.75;;;20.38;;
21727;SDS011;11026;50.560;17.852;2022-11-02T04:28:40;29.80;;;20.23;;
21727;SDS011;11026;50.560;17.852;2022-11-02T04:31:08;33.40;;;20.98;;
21727;SDS011;11026;50.560;17.852;2022-11-02T04:33:42;29.73;;;19.75;;
21727;SDS011;11026;50.560;17.852;2022-11-02T04:36:17;33.33;;;21.05;;
21727;SDS011;11026;50.560;17.852;2022-11-02T04:38:44;28.60;;;18.88;;
21727;SDS011;11026;50.560;17.852;2022-11-02T04:41:12;29.13;;;19.95;;
21727;SDS011;11026;50.560;17.852;2022-11-02T04:44:00;31.92;;;19.83;;
21727;SDS011;11026;50.560;17.852;2022-11-02T04:49:17;28.02;;;18.45;;
21727;SDS011;11026;50.560;17.852;2022-11-02T04:51:44;29.70;;;18.92;;
21727;SDS011;11026;50.560;17.852;2022-11-02T04:54:16;30.27;;;19.52;;
21727;SDS011;11026;50.560;17.852;2022-11-02T04:56:43;31.58;;;20.30;;
21727;SDS011;11026;50.560;17.852;2022-11-02T05:01:55;30.25;;;19.85;;
21727;SDS011;11026;50.560;17.852;2022-11-02T05:04:22;30.65;;;20.70;;
21727;SDS011;11026;50.560;17.852;2022-11-02T05:06:49;32.92;;;21.52;;
21727;SDS011;11026;50.560;17.852;2022-11-02T05:09:16;29.67;;;19.52;;
21727;SDS011;11026;50.560;17.852;2022-11-02T05:11:43;30.67;;;19.63;;
21727;SDS011;11026;50.560;17.852;2022-11-02T05:14:12;30.52;;;19.13;;
21727;SDS011;11026;50.560;17.852;2022-11-02T05:16:39;31.88;;;19.95;;
21727;SDS011;11026;50.560;17.852;2022-11-02T05:19:08;30.10;;;20.13;;
21727;SDS011;11026;50.560;17.852;2022-11-02T05:21:38;31.60;;;21.70;;
21727;SDS011;11026;50.560;17.852;2022-11-02T05:24:06;33.20;;;20.15;;
21727;SDS011;11026;50.560;17.852;2022-11-02T05:26:37;29.52;;;18.88;;
21727;SDS011;11026;50.560;17.852;2022-11-02T05:29:06;31.23;;;18.55;;
21727;SDS011;11026;50.560;17.852;2022-11-02T05:31:35;31.58;;;19.70;;
21727;SDS011;11026;50.560;17.852;2022-11-02T05:34:06;29.70;;;19.20;;
21727;SDS011;11026;50.560;17.852;2022-11-02T05:36:34;31.05;;;19.40;;
21727;SDS011;11026;50.560;17.852;2022-11-02T05:39:03;31.52;;;19.52;;
21727;SDS011;11026;50.560;17.852;2022-11-02T05:44:02;33.78;;;21.77;;
21727;SDS011;11026;50.560;17.852;2022-11-02T05:49:05;33.40;;;20.67;;
21727;SDS011;11026;50.560;17.852;2022-11-02T05:51:32;33.58;;;21.13;;
21727;SDS011;11026;50.560;17.852;2022-11-02T05:54:01;35.47;;;20.45;;
21727;SDS011;11026;50.560;17.852;2022-11-02T05:56:28;33.45;;;19.95;;
21727;SDS011;11026;50.560;17.852;2022-11-02T05:58:57;32.10;;;19.80;;
21727;SDS011;11026;50.560;17.852;2022-11-02T06:04:01;32.22;;;19.90;;
21727;SDS011;11026;50.560;17.852;2022-11-02T06:06:28;32.92;;;20.63;;
21727;SDS011;11026;50.560;17.852;2022-11-02T06:08:56;30.45;;;21.17;;
21727;SDS011;11026;50.560;17.852;2022-11-02T06:11:30;32.85;;;21.65;;
21727;SDS011;11026;50.560;17.852;2022-11-02T06:13:57;36.25;;;20.73;;
21727;SDS011;11026;50.560;17.852;2022-11-02T06:16:36;36.97;;;22.15;;
21727;SDS011;11026;50.560;17.852;2022-11-02T06:19:05;32.03;;;20.15;;
21727;SDS011;11026;50.560;17.852;2022-11-02T06:21:34;36.63;;;21.65;;
21727;SDS011;11026;50.560;17.852;2022-11-02T06:24:04;35.40;;;21.75;;
21727;SDS011;11026;50.560;17.852;2022-11-02T06:26:32;32.80;;;20.50;;
21727;SDS011;11026;50.560;17.852;2022-11-02T06:28:59;34.97;;;20.88;;
21727;SDS011;11026;50.560;17.852;2022-11-02T06:31:26;32.40;;;19.58;;
21727;SDS011;11026;50.560;17.852;2022-11-02T06:33:55;30.38;;;19.05;;
21727;SDS011;11026;50.560;17.852;2022-11-02T06:36:27;30.85;;;19.92;;
21727;SDS011;11026;50.560;17.852;2022-11-02T06:38:54;32.05;;;19.70;;
21727;SDS011;11026;50.560;17.852;2022-11-02T06:41:21;31.73;;;19.90;;
21727;SDS011;11026;50.560;17.852;2022-11-02T06:43:49;34.17;;;19.83;;
21727;SDS011;11026;50.560;17.852;2022-11-02T06:49:13;29.98;;;19.63;;
21727;SDS011;11026;50.560;17.852;2022-11-02T06:51:49;32.55;;;19.90;;
21727;SDS011;11026;50.560;17.852;2022-11-02T06:54:17;34.60;;;24.40;;
21727;SDS011;11026;50.560;17.852;2022-11-02T06:56:44;29.10;;;18.70;;
21727;SDS011;11026;50.560;17.852;2022-11-02T06:59:13;32.00;;;20.23;;
21727;SDS011;11026;50.560;17.852;2022-11-02T07:01:40;26.67;;;18.45;;
21727;SDS011;11026;50.560;17.852;2022-11-02T07:04:08;27.85;;;18.60;;
21727;SDS011;11026;50.560;17.852;2022-11-02T07:06:35;29.20;;;18.58;;
21727;SDS011;11026;50.560;17.852;2022-11-02T07:09:03;26.98;;;18.55;;
21727;SDS011;11026;50.560;17.852;2022-11-02T07:11:31;30.45;;;20.25;;
21727;SDS011;11026;50.560;17.852;2022-11-02T07:13:59;31.90;;;20.55;;
21727;SDS011;11026;50.560;17.852;2022-11-02T07:19:23;34.63;;;22.73;;
21727;SDS011;11026;50.560;17.852;2022-11-02T07:24:48;32.55;;;22.85;;
21727;SDS011;11026;50.560;17.852;2022-11-02T07:27:15;36.78;;;22.27;;
21727;SDS011;11026;50.560;17.852;2022-11-02T07:29:42;33.05;;;22.23;;
21727;SDS011;11026;50.560;17.852;2022-11-02T07:32:10;30.50;;;21.50;;
21727;SDS011;11026;50.560;17.852;2022-11-02T07:34:37;33.28;;;20.58;;
21727;SDS011;11026;50.560;17.852;2022-11-02T07:39:54;31.50;;;19.90;;
21727;SDS011;11026;50.560;17.852;2022-11-02T07:42:30;28.50;;;19.92;;
21727;SDS011;11026;50.560;17.852;2022-11-02T07:45:03;27.60;;;18.60;;
21727;SDS011;11026;50.560;17.852;2022-11-02T07:47:45;29.90;;;19.70;;
21727;SDS011;11026;50.560;17.852;2022-11-02T07:56:05;29.20;;;18.65;;
21727;SDS011;11026;50.560;17.852;2022-11-02T07:58:39;29.58;;;18.48;;
21727;SDS011;11026;50.560;17.852;2022-11-02T08:01:06;26.40;;;18.02;;
21727;SDS011;11026;50.560;17.852;2022-11-02T08:03:34;28.05;;;18.77;;
21727;SDS011;11026;50.560;17.852;2022-11-02T08:06:02;29.27;;;18.75;;
21727;SDS011;11026;50.560;17.852;2022-11-02T08:08:40;28.02;;;18.25;;
21727;SDS011;11026;50.560;17.852;2022-11-02T08:11:09;25.73;;;16.42;;
21727;SDS011;11026;50.560;17.852;2022-11-02T08:13:36;26.95;;;16.67;;
21727;SDS011;11026;50.560;17.852;2022-11-02T08:16:04;25.08;;;15.85;;
21727;SDS011;11026;50.560;17.852;2022-11-02T08:18:32;25.02;;;16.10;;
21727;SDS011;11026;50.560;17.852;2022-11-02T08:21:00;23.30;;;15.70;;
21727;SDS011;11026;50.560;17.852;2022-11-02T08:23:28;21.75;;;15.18;;
21727;SDS011;11026;50.560;17.852;2022-11-02T08:25:59;22.20;;;15.18;;
21727;SDS011;11026;50.560;17.852;2022-11-02T08:28:27;21.20;;;12.60;;
21727;SDS011;11026;50.560;17.852;2022-11-02T08:31:03;18.27;;;12.52;;
21727;SDS011;11026;50.560;17.852;2022-11-02T08:33:30;18.05;;;10.90;;
21727;SDS011;11026;50.560;17.852;2022-11-02T08:36:02;19.73;;;10.75;;
21727;SDS011;11026;50.560;17.852;2022-11-02T08:38:30;15.83;;;11.07;;
21727;SDS011;11026;50.560;17.852;2022-11-02T08:41:05;15.82;;;9.93;;
21727;SDS011;11026;50.560;17.852;2022-11-02T08:43:32;10.35;;;8.68;;
21727;SDS011;11026;50.560;17.852;2022-11-02T08:46:05;12.27;;;9.07;;
21727;SDS011;11026;50.560;17.852;2022-11-02T08:48:40;11.95;;;8.73;;
21727;SDS011;11026;50.560;17.852;2022-11-02T08:56:16;13.45;;;9.32;;
21727;SDS011;11026;50.560;17.852;2022-11-02T09:01:22;10.07;;;7.90;;
21727;SDS011;11026;50.560;17.852;2022-11-02T09:03:49;9.45;;;8.02;;
21727;SDS011;11026;50.560;17.852;2022-11-02T09:06:16;11.90;;;7.70;;
21727;SDS011;11026;50.560;17.852;2022-11-02T09:08:45;9.98;;;7.75;;
21727;SDS011;11026;50.560;17.852;2022-11-02T09:11:12;10.20;;;7.32;;
21727;SDS011;11026;50.560;17.852;2022-11-02T09:13:43;11.70;;;7.22;;
21727;SDS011;11026;50.560;17.852;2022-11-02T09:16:12;10.07;;;7.03;;
21727;SDS011;11026;50.560;17.852;2022-11-02T09:18:40;10.63;;;6.93;;
21727;SDS011;11026;50.560;17.852;2022-11-02T09:21:07;18.60;;;13.45;;
21727;SDS011;11026;50.560;17.852;2022-11-02T09:26:08;15.70;;;9.70;;
21727;SDS011;11026;50.560;17.852;2022-11-02T09:28:36;12.93;;;9.30;;
21727;SDS011;11026;50.560;17.852;2022-11-02T09:31:04;13.57;;;8.70;;
21727;SDS011;11026;50.560;17.852;2022-11-02T09:33:37;10.03;;;7.97;;
21727;SDS011;11026;50.560;17.852;2022-11-02T09:36:07;10.60;;;7.35;;
21727;SDS011;11026;50.560;17.852;2022-11-02T09:38:41;9.95;;;7.07;;
21727;SDS011;11026;50.560;17.852;2022-11-02T09:41:12;10.45;;;7.65;;
21727;SDS011;11026;50.560;17.852;2022-11-02T09:44:08;11.40;;;7.43;;
21727;SDS011;11026;50.560;17.852;2022-11-02T09:47:00;15.00;;;9.30;;
21727;SDS011;11026;50.560;17.852;2022-11-02T09:49:48;13.05;;;8.10;;
21727;SDS011;11026;50.560;17.852;2022-11-02T09:55:31;10.35;;;7.75;;
21727;SDS011;11026;50.560;17.852;2022-11-02T09:58:05;14.15;;;7.72;;
21727;SDS011;11026;50.560;17.852;2022-11-02T10:00:46;10.23;;;6.68;;
21727;SDS011;11026;50.560;17.852;2022-11-02T10:03:42;7.47;;;6.43;;
21727;SDS011;11026;50.560;17.852;2022-11-02T10:06:29;11.27;;;6.07;;
21727;SDS011;11026;50.560;17.852;2022-11-02T10:11:44;8.80;;;7.18;;
21727;SDS011;11026;50.560;17.852;2022-11-02T10:19:54;7.28;;;5.38;;
21727;SDS011;11026;50.560;17.852;2022-11-02T10:22:26;6.63;;;4.75;;
21727;SDS011;11026;50.560;17.852;2022-11-02T10:24:59;7.43;;;4.88;;
21727;SDS011;11026;50.560;17.852;2022-11-02T10:27:38;6.53;;;3.90;;
21727;SDS011;11026;50.560;17.852;2022-11-02T10:33:01;6.60;;;4.65;;
21727;SDS011;11026;50.560;17.852;2022-11-02T10:45:10;6.25;;;3.70;;
21727;SDS011;11026;50.560;17.852;2022-11-02T10:50:40;7.07;;;3.42;;
21727;SDS011;11026;50.560;17.852;2022-11-02T10:59:08;7.93;;;3.47;;
21727;SDS011;11026;50.560;17.852;2022-11-02T11:04:28;7.60;;;4.60;;
21727;SDS011;11026;50.560;17.852;2022-11-02T11:06:58;7.55;;;5.13;;
21727;SDS011;11026;50.560;17.852;2022-11-02T11:09:38;4.50;;;3.85;;
21727;SDS011;11026;50.560;17.852;2022-11-02T11:12:31;7.72;;;5.22;;
21727;SDS011;11026;50.560;17.852;2022-11-02T11:15:06;7.18;;;4.97;;
21727;SDS011;11026;50.560;17.852;2022-11-02T11:18:10;8.77;;;5.10;;
21727;SDS011;11026;50.560;17.852;2022-11-02T11:21:00;6.70;;;4.43;;
21727;SDS011;11026;50.560;17.852;2022-11-02T11:23:28;7.72;;;5.15;;
21727;SDS011;11026;50.560;17.852;2022-11-02T11:26:05;10.27;;;5.07;;
21727;SDS011;11026;50.560;17.852;2022-11-02T11:28:52;12.50;;;4.82;;
21727;SDS011;11026;50.560;17.852;2022-11-02T11:31:23;8.68;;;5.35;;
21727;SDS011;11026;50.560;17.852;2022-11-02T11:33:52;10.25;;;4.78;;
21727;SDS011;11026;50.560;17.852;2022-11-02T11:36:28;8.63;;;5.53;;
21727;SDS011;11026;50.560;17.852;2022-11-02T11:39:06;8.82;;;5.50;;
21727;SDS011;11026;50.560;17.852;2022-11-02T11:41:49;8.60;;;5.85;;
21727;SDS011;11026;50.560;17.852;2022-11-02T11:44:16;7.65;;;5.70;;
21727;SDS011;11026;50.560;17.852;2022-11-02T11:49:28;8.15;;;5.43;;
21727;SDS011;11026;50.560;17.852;2022-11-02T11:52:20;8.38;;;5.43;;
21727;SDS011;11026;50.560;17.852;2022-11-02T11:55:18;7.72;;;5.63;;
21727;SDS011;11026;50.560;17.852;2022-11-02T11:58:14;7.55;;;4.95;;
21727;SDS011;11026;50.560;17.852;2022-11-02T12:56:16;5.68;;;4.03;;
21727;SDS011;11026;50.560;17.852;2022-11-02T12:58:53;6.78;;;4.30;;
21727;SDS011;11026;50.560;17.852;2022-11-02T13:01:27;7.43;;;4.20;;
21727;SDS011;11026;50.560;17.852;2022-11-02T13:04:08;7.65;;;5.05;;
21727;SDS011;11026;50.560;17.852;2022-11-02T13:06:44;7.35;;;4.35;;
21727;SDS011;11026;50.560;17.852;2022-11-02T13:09:24;7.18;;;6.13;;
21727;SDS011;11026;50.560;17.852;2022-11-02T13:12:00;6.80;;;4.40;;
21727;SDS011;11026;50.560;17.852;2022-11-02T13:14:38;6.68;;;4.30;;
21727;SDS011;11026;50.560;17.852;2022-11-02T13:17:19;6.80;;;4.30;;
21727;SDS011;11026;50.560;17.852;2022-11-02T13:19:57;7.45;;;4.30;;
21727;SDS011;11026;50.560;17.852;2022-11-02T13:22:30;6.93;;;4.40;;
21727;SDS011;11026;50.560;17.852;2022-11-02T13:25:12;8.57;;;4.53;;
21727;SDS011;11026;50.560;17.852;2022-11-02T13:27:55;8.07;;;4.88;;
21727;SDS011;11026;50.560;17.852;2022-11-02T13:30:31;10.55;;;4.18;;
21727;SDS011;11026;50.560;17.852;2022-11-02T13:36:10;7.05;;;4.40;;
21727;SDS011;11026;50.560;17.852;2022-11-02T13:49:49;6.85;;;4.15;;
21727;SDS011;11026;50.560;17.852;2022-11-02T13:52:40;8.63;;;5.60;;
21727;SDS011;11026;50.560;17.852;2022-11-02T13:55:12;10.80;;;4.60;;
21727;SDS011;11026;50.560;17.852;2022-11-02T13:58:02;11.63;;;4.85;;
21727;SDS011;11026;50.560;17.852;2022-11-02T14:00:38;9.30;;;5.13;;
21727;SDS011;11026;50.560;17.852;2022-11-02T14:03:15;7.70;;;5.00;;
21727;SDS011;11026;50.560;17.852;2022-11-02T14:06:03;8.23;;;4.90;;
21727;SDS011;11026;50.560;17.852;2022-11-02T14:08:46;6.32;;;4.20;;
21727;SDS011;11026;50.560;17.852;2022-11-02T14:11:32;6.55;;;4.32;;
21727;SDS011;11026;50.560;17.852;2022-11-02T14:16:44;8.27;;;4.88;;
21727;SDS011;11026;50.560;17.852;2022-11-02T14:19:30;10.85;;;5.47;;
21727;SDS011;11026;50.560;17.852;2022-11-02T14:22:15;12.48;;;5.63;;
21727;SDS011;11026;50.560;17.852;2022-11-02T14:29:47;10.25;;;4.30;;
21727;SDS011;11026;50.560;17.852;2022-11-02T14:37:46;8.43;;;4.60;;
21727;SDS011;11026;50.560;17.852;2022-11-02T14:43:39;10.77;;;5.53;;
21727;SDS011;11026;50.560;17.852;2022-11-02T14:49:26;8.18;;;5.03;;
21727;SDS011;11026;50.560;17.852;2022-11-02T14:51:59;8.93;;;5.47;;
21727;SDS011;11026;50.560;17.852;2022-11-02T14:54:37;11.52;;;6.03;;
21727;SDS011;11026;50.560;17.852;2022-11-02T14:57:27;9.75;;;5.50;;
21727;SDS011;11026;50.560;17.852;2022-11-02T14:59:59;10.90;;;5.63;;
21727;SDS011;11026;50.560;17.852;2022-11-02T15:02:37;10.90;;;5.88;;
21727;SDS011;11026;50.560;17.852;2022-11-02T15:05:18;13.32;;;5.88;;
21727;SDS011;11026;50.560;17.852;2022-11-02T15:10:34;13.82;;;7.18;;
21727;SDS011;11026;50.560;17.852;2022-11-02T15:13:22;12.10;;;6.20;;
21727;SDS011;11026;50.560;17.852;2022-11-02T15:26:40;10.82;;;6.85;;
21727;SDS011;11026;50.560;17.852;2022-11-02T15:32:01;10.85;;;5.88;;
21727;SDS011;11026;50.560;17.852;2022-11-02T15:34:38;13.77;;;6.67;;
21727;SDS011;11026;50.560;17.852;2022-11-02T15:37:13;14.05;;;6.93;;
21727;SDS011;11026;50.560;17.852;2022-11-02T15:39:52;11.95;;;6.00;;
21727;SDS011;11026;50.560;17.852;2022-11-02T15:42:40;12.45;;;6.20;;
21727;SDS011;11026;50.560;17.852;2022-11-02T15:45:15;12.80;;;6.45;;
21727;SDS011;11026;50.560;17.852;2022-11-02T16:05:01;22.25;;;10.50;;
21727;SDS011;11026;50.560;17.852;2022-11-02T16:07:29;20.27;;;12.23;;
21727;SDS011;11026;50.560;17.852;2022-11-02T16:10:23;22.10;;;13.52;;
21727;SDS011;11026;50.560;17.852;2022-11-02T16:15:45;22.77;;;12.05;;
21727;SDS011;11026;50.560;17.852;2022-11-02T16:18:24;22.90;;;10.90;;
21727;SDS011;11026;50.560;17.852;2022-11-02T16:21:01;17.42;;;8.50;;
21727;SDS011;11026;50.560;17.852;2022-11-02T16:23:33;16.60;;;9.15;;
21727;SDS011;11026;50.560;17.852;2022-11-02T16:26:12;15.20;;;7.55;;
21727;SDS011;11026;50.560;17.852;2022-11-02T16:28:52;19.15;;;9.88;;
21727;SDS011;11026;50.560;17.852;2022-11-02T16:31:22;21.13;;;10.75;;
21727;SDS011;11026;50.560;17.852;2022-11-02T16:34:11;22.95;;;10.48;;
21727;SDS011;11026;50.560;17.852;2022-11-02T16:36:51;24.20;;;12.20;;
21727;SDS011;11026;50.560;17.852;2022-11-02T16:39:26;24.92;;;13.02;;
21727;SDS011;11026;50.560;17.852;2022-11-02T16:41:58;27.55;;;14.93;;
21727;SDS011;11026;50.560;17.852;2022-11-02T16:44:30;21.13;;;12.18;;
21727;SDS011;11026;50.560;17.852;2022-11-02T16:52:19;32.72;;;19.35;;
21727;SDS011;11026;50.560;17.852;2022-11-02T17:00:27;51.97;;;30.35;;
21727;SDS011;11026;50.560;17.852;2022-11-02T17:02:55;48.45;;;29.83;;
21727;SDS011;11026;50.560;17.852;2022-11-02T17:05:23;39.38;;;24.42;;
21727;SDS011;11026;50.560;17.852;2022-11-02T17:07:57;38.10;;;22.45;;
21727;SDS011;11026;50.560;17.852;2022-11-02T17:10:27;41.00;;;23.80;;
21727;SDS011;11026;50.560;17.852;2022-11-02T17:13:01;38.38;;;23.40;;
21727;SDS011;11026;50.560;17.852;2022-11-02T17:15:33;35.35;;;21.95;;
21727;SDS011;11026;50.560;17.852;2022-11-02T17:20:34;24.50;;;14.20;;
21727;SDS011;11026;50.560;17.852;2022-11-02T17:23:07;24.25;;;13.93;;
21727;SDS011;11026;50.560;17.852;2022-11-02T17:31:54;21.60;;;11.57;;
21727;SDS011;11026;50.560;17.852;2022-11-02T17:34:27;18.05;;;9.98;;
21727;SDS011;11026;50.560;17.852;2022-11-02T17:37:04;21.08;;;10.98;;
21727;SDS011;11026;50.560;17.852;2022-11-02T17:42:37;18.20;;;10.43;;
21727;SDS011;11026;50.560;17.852;2022-11-02T17:45:28;21.58;;;10.98;;
21727;SDS011;11026;50.560;17.852;2022-11-02T17:48:05;24.83;;;13.15;;
21727;SDS011;11026;50.560;17.852;2022-11-02T17:50:35;21.35;;;12.05;;
21727;SDS011;11026;50.560;17.852;2022-11-02T17:53:08;20.30;;;10.15;;
21727;SDS011;11026;50.560;17.852;2022-11-02T17:55:39;16.05;;;10.48;;
21727;SDS011;11026;50.560;17.852;2022-11-02T17:58:13;16.35;;;10.70;;
21727;SDS011;11026;50.560;17.852;2022-11-02T18:00:46;18.85;;;10.25;;
21727;SDS011;11026;50.560;17.852;2022-11-02T18:03:15;20.95;;;10.55;;
21727;SDS011;11026;50.560;17.852;2022-11-02T18:05:49;14.75;;;9.35;;
21727;SDS011;11026;50.560;17.852;2022-11-02T18:08:24;16.45;;;9.60;;
21727;SDS011;11026;50.560;17.852;2022-11-02T18:10:51;19.73;;;10.40;;
21727;SDS011;11026;50.560;17.852;2022-11-02T18:13:25;18.13;;;11.35;;
21727;SDS011;11026;50.560;17.852;2022-11-02T18:15:55;18.52;;;10.43;;
21727;SDS011;11026;50.560;17.852;2022-11-02T18:18:27;16.75;;;9.40;;
21727;SDS011;11026;50.560;17.852;2022-11-02T18:20:55;17.20;;;10.80;;
21727;SDS011;11026;50.560;17.852;2022-11-02T18:23:22;21.00;;;11.85;;
21727;SDS011;11026;50.560;17.852;2022-11-02T18:25:50;17.25;;;10.48;;
21727;SDS011;11026;50.560;17.852;2022-11-02T18:28:24;20.75;;;15.13;;
21727;SDS011;11026;50.560;17.852;2022-11-02T18:33:33;20.63;;;14.85;;
21727;SDS011;11026;50.560;17.852;2022-11-02T18:36:05;21.48;;;11.63;;
21727;SDS011;11026;50.560;17.852;2022-11-02T18:38:42;23.67;;;13.20;;
21727;SDS011;11026;50.560;17.852;2022-11-02T18:41:12;26.10;;;14.85;;
21727;SDS011;11026;50.560;17.852;2022-11-02T18:44:00;29.17;;;16.08;;
21727;SDS011;11026;50.560;17.852;2022-11-02T18:46:41;27.27;;;16.50;;
21727;SDS011;11026;50.560;17.852;2022-11-02T18:49:09;22.85;;;13.88;;
21727;SDS011;11026;50.560;17.852;2022-11-02T18:51:43;22.27;;;11.93;;
21727;SDS011;11026;50.560;17.852;2022-11-02T18:56:42;16.50;;;8.25;;
21727;SDS011;11026;50.560;17.852;2022-11-02T18:59:11;13.43;;;7.22;;
21727;SDS011;11026;50.560;17.852;2022-11-02T19:01:40;14.65;;;6.63;;
21727;SDS011;11026;50.560;17.852;2022-11-02T19:04:09;10.68;;;6.85;;
21727;SDS011;11026;50.560;17.852;2022-11-02T19:06:42;15.90;;;6.25;;
21727;SDS011;11026;50.560;17.852;2022-11-02T19:09:30;12.60;;;6.43;;
21727;SDS011;11026;50.560;17.852;2022-11-02T19:12:28;11.98;;;6.10;;
21727;SDS011;11026;50.560;17.852;2022-11-02T19:14:57;18.00;;;5.85;;
21727;SDS011;11026;50.560;17.852;2022-11-02T19:17:29;11.73;;;6.20;;
21727;SDS011;11026;50.560;17.852;2022-11-02T19:19:58;14.45;;;5.75;;
21727;SDS011;11026;50.560;17.852;2022-11-02T19:22:29;14.43;;;6.25;;
21727;SDS011;11026;50.560;17.852;2022-11-02T19:24:56;11.80;;;5.82;;
21727;SDS011;11026;50.560;17.852;2022-11-02T19:27:27;14.82;;;5.75;;
21727;SDS011;11026;50.560;17.852;2022-11-02T19:29:55;27.58;;;13.77;;
21727;SDS011;11026;50.560;17.852;2022-11-02T19:32:29;22.00;;;10.95;;
21727;SDS011;11026;50.560;17.852;2022-11-02T19:34:56;17.40;;;8.23;;
21727;SDS011;11026;50.560;17.852;2022-11-02T19:37:24;17.15;;;6.80;;
21727;SDS011;11026;50.560;17.852;2022-11-02T19:39:52;13.00;;;6.30;;
21727;SDS011;11026;50.560;17.852;2022-11-02T19:42:21;13.35;;;6.72;;
21727;SDS011;11026;50.560;17.852;2022-11-02T19:47:21;16.58;;;7.50;;